CheckWX is a tool to help pilots better visualize weather data.  It is not intended as a substitute for an official pre-flight weather briefing.

22:13:12 UTC

1S5 METAR
Sunnyside Municipal Airport
Sunnyside, Washington, USA
Current

18 mins ago

K1S5 252155Z AUTO 20009KT 10SM CLR 13/07 A2993 RMK AO2 T01290072
Observed
Mar-25 @ 21:55 UTC
Wind
  • 200° at 9 KTS
Visibility
10 SM
Flight Rules
VFR
Cloud Levels
  • Clear skies
Temperature
13°C / 55°F
Dewpoint
C / 45°F
Humidity
67%
Altimeter
29.93" Hg
Pressure
1013.52 hPa
Previous

38 mins ago

K1S5 252135Z AUTO 21003KT 10SM SCT120 11/07 A2993 RMK AO2 T01100070
Observed
Mar-25 @ 21:35 UTC
Wind
  • 210° at 3 KTS
Visibility
10 SM
Flight Rules
VFR
Cloud Levels
  • Scattered at 12,000' AGL
Temperature
11°C / 52°F
Dewpoint
C / 45°F
Humidity
77%
Altimeter
29.93" Hg
Pressure
1013.52 hPa
Previous

58 mins ago

K1S5 252115Z AUTO 00000KT 10SM SCT120 10/07 A2994 RMK AO2 T01040065
Observed
Mar-25 @ 21:15 UTC
Visibility
10 SM
Flight Rules
VFR
Cloud Levels
  • Scattered at 12,000' AGL
Temperature
10°C / 50°F
Dewpoint
C / 45°F
Humidity
82%
Altimeter
29.94" Hg
Pressure
1013.92 hPa